Hauptseite
METAR-TAF:

METAR-TAF

Flughäfen :

Islay Airport

Islay, Schottland

Breite: 55-40-55N, Länge: 006-15-24W, Höhe: 16 m

Beobachtung

Neuester Wetterbericht von vor 44 Minuten, um 18:50 UTC
Wind 11 kt aus Nordwest
Temperatur 12°C
Luftfeuchtigkeit 67%
Luftdruck 1017 hPa
Sichtweite 10 km oder mehr

METAR: EGPI 221850Z AUTO 32011KT 9999 NCD 12/06 Q1017

Zeit: 20:34 (19:34 UTC)

Prognose

Neuester Wetterbericht von vor 5 Stunden und 37 Minuten, um 13:57 UTC
Gültige Prognose vom 22 um 15 UTC bis 22 um 18 UTC
Wind 11 kt aus West/Nordwest
Sichtweite 10 km oder mehr
Aufgelockert bewölkt in der Höhe von 3500 ft

TAF: EGPI 221357Z 2215/2218 30011KT 9999 SCT035

Wetterbeobachtungen und Prognosen von mehr als 4000 Flughäfen (METAR und TAF Bericht).

Die verfügbaren Stationen werden durch gelbe und rote Markierungen auf der Karte dargestellt.

Führen Sie die Maus auf sie, um den Namen der Station zu sehen.

Darauf klicken, um die Beobachtung von Wetterbeobachtungen und Prognosen zu sehen.

Um die Karte zu ändern : klicken Sie auf den grünen Tasten mit einem schwarzen Kreuz Zum Vergrößern, auf den grünen Button mit einem Gedankenstrich zu verkleinern, oder auf die grünen Pfeile für benachbarte Karten.


METAR-TAF: